• Join FlightAware (Why Join?)
  • Login
  • US Flag 
09:09PM EDT


 

Airport Tracker/Info


-or-


 

Live Flight TrackerFlight Track Log ✈ USC105 ✈ 26-Jun-2013 ✈ KDPA - KYIP

Flight Track Log - Related Links

Times and Time Zones

All times are in EDT time to prevent confusion due to time zone crossing. See the USC105 flight status page for this flight to view local times or setup timezone preferences in your user account.

Time Position Orientation Groundspeed Altitude Reporting Facility
EDT Latitude Longitude Course Direction KTS MPH feet Rate Location/Type
05:06AM 41.9167 -88.2667 153° Southeast 3 3 700  Level Chicago TRACON
05:07AM 41.9167 -88.2667 153° Southeast 1 1 700  Level Chicago TRACON
05:12AM 41.9423 -87.8547 153° Southeast  Level Estimated
05:31AM 41.8359 -88.1974 147° Southeast  Level FlightAware Approximate
05:33AM 41.8781 -88.2575 153° Southeast 126 145 1,500  Level Chicago Center
05:34AM 41.8514 -88.2314 144° Southeast 118 136 2,600 960 Climbing Chicago Center
05:35AM 41.8272 -88.1925 130° Southeast 125 144 3,500 900 Climbing Chicago Center
05:36AM 41.8164 -88.1347 104° East 151 174 4,500 720 Climbing Chicago Center
05:37AM 41.8164 -88.0719 90° East 161 185 5,000 240 Climbing Chicago Center
05:38AM 41.8841 -87.7403 153° Southeast  Level Estimated
05:38AM 41.8119 -87.9958 94° East 187 215 5,000  Level Chicago Center
05:39AM 41.8078 -87.9158 94° East 204 235 5,000  Level Chicago Center
05:40AM 41.7886 -87.8506 111° Southeast 204 235 5,100  Climbing Chicago Center
05:41AM 41.7633 -87.7842 117° Southeast 201 231 5,000 -60 Descending Chicago Center
05:42AM 41.7369 -87.7178 118° Southeast 202 232 5,000  Level Chicago Center
05:43AM 41.7103 -87.6531 119° Southeast 201 231 5,000  Level Chicago Center
05:44AM 41.6931 -87.5828 108° East 204 235 5,000  Level Chicago Center
05:45AM 41.6917 -87.5031 91° East 214 246 5,000  Level Chicago Center
05:46AM 41.6894 -87.4244 92° East 213 245 5,000  Level Chicago Center
05:47AM 41.6894 -87.3450 90° East 215 247 5,000  Level Chicago Center
05:48AM 41.6772 -87.2706 102° East 217 250 5,000  Level Chicago Center
05:49AM 41.6397 -87.2192 134° Southeast 200 230 5,000  Level Chicago Center
05:50AM 41.5964 -87.1708 140° Southeast 201 231 5,000  Level Chicago Center
05:51AM 41.5539 -87.1236 140° Southeast 201 231 5,000  Level Chicago Center
05:52AM 41.5042 -87.0700 141° Southeast 196 226 5,000  Level Chicago Center
05:53AM 41.4619 -87.0236 141° Southeast 197 227 5,000  Level Chicago Center
05:54AM 41.4183 -86.9794 143° Southeast 197 227 5,000 -60 Level Chicago Center
05:55AM 41.4181 -86.9117 90° East 213 245 4,900 -60 Descending Chicago Center
05:56AM 41.4383 -86.8369 70° East 216 249 4,900  Level Chicago Center
05:57AM 41.4631 -86.7647 65° Northeast 215 247 5,000  Climbing Chicago Center
05:58AM 41.4856 -86.6956 67° East 211 243 4,900  Descending Chicago Center
05:59AM 41.5192 -86.6367 53° Northeast 203 234 5,000  Climbing Chicago Center
06:00AM 41.5544 -86.5786 51° Northeast 202 232 4,900  Descending Chicago Center
06:01AM 41.5933 -86.5269 45° Northeast 199 229 5,000  Climbing Chicago Center
06:02AM 41.6333 -86.4775 43° Northeast 197 227 5,000  Level Chicago Center
06:03AM 41.6742 -86.4283 42° Northeast 198 228 5,000 -60 Level Chicago Center
06:04AM 41.7147 -86.3786 42° Northeast 197 227 4,900 -60 Descending Chicago Center
06:05AM 41.7267 -86.3067 77° East 202 232 4,900  Level Chicago Center
06:06AM 41.7447 -86.2356 71° East 200 230 5,000  Climbing Chicago Center
06:07AM 41.7589 -86.1622 75° East 203 234 4,900 -60 Descending Chicago Center
06:08AM 41.7731 -86.0897 75° East 202 232 4,900  Level Chicago Center
06:09AM 41.7858 -86.0172 77° East 201 231 4,900  Level Chicago Center
06:10AM 41.8011 -85.9431 75° East 205 236 5,000  Climbing Chicago Center
06:11AM 41.8158 -85.8694 75° East 205 236 4,900  Descending Chicago Center
06:12AM 41.8289 -85.7967 76° East 202 232 5,000  Climbing Chicago Center
06:13AM 41.8431 -85.7244 75° East 201 231 4,900 -60 Descending Chicago Center
06:14AM 41.8567 -85.6525 76° East 199 229 4,900  Level Chicago Center
06:15AM 41.8700 -85.5794 76° East 200 230 4,900  Level Chicago Center
06:16AM 41.8839 -85.5064 76° East 201 231 4,900  Level Chicago Center
06:17AM 41.8975 -85.4336 76° East 201 231 4,900  Level Chicago Center
06:18AM 41.9114 -85.3614 75° East 200 230 5,000  Climbing Chicago Center
06:19AM 41.9250 -85.2886 76° East 200 230 4,900  Descending Chicago Center
06:20AM 41.9383 -85.2150 76° East 201 231 5,000  Climbing Chicago Center
06:21AM 41.9508 -85.1436 77° East 199 229 5,000 -60 Level Chicago Center
06:22AM 41.9650 -85.0722 75° East 198 228 4,900 -60 Descending Chicago Center
06:23AM 41.9786 -85.0017 75° East 197 227 4,900  Level Chicago Center
06:24AM 41.9944 -84.9167 76° East 195 224 5,000  Climbing Chicago Center
06:25AM 42.0064 -84.8464 77° East 194 223 4,900  Descending Chicago Center
06:26AM 42.0192 -84.7767 76° East 193 222 5,000  Climbing Chicago Center
06:27AM 42.0322 -84.7058 76° East 194 223 4,900 -120 Descending Chicago Center